Time,TemperatureF,DewpointF,PressureIn,WindDirection,WindDirectionDegrees,WindSpeedMPH,WindSpeedGustMPH,Humidity,HourlyPrecipIn,Conditions,Clouds,dailyrainin,SoftwareType,DateUTC
2013-06-20 00:01:00,82.0,36.0,29.56,ESE,119,0.0,1.0,19,0.00,,,0.00,,2013-06-20 06:01:00,
2013-06-20 00:11:00,82.0,36.0,29.56,ESE,119,0.0,1.0,19,0.00,,,0.00,,2013-06-20 06:11:00,
2013-06-20 00:22:00,82.0,33.0,29.56,SE,130,0.0,2.0,17,0.00,,,0.00,,2013-06-20 06:22:00,
2013-06-20 00:33:00,81.0,36.0,29.58,SSW,198,0.0,2.0,20,0.00,,,0.00,,2013-06-20 06:33:00,
2013-06-20 00:43:00,81.0,36.0,29.58,SSW,198,0.0,2.0,20,0.00,,,0.00,,2013-06-20 06:43:00,
2013-06-20 00:53:00,80.0,40.0,29.59,South,191,0.0,1.0,24,0.00,,,0.00,,2013-06-20 06:53:00,
2013-06-20 01:01:00,79.0,39.0,29.59,SSE,161,0.0,4.0,24,0.00,,,0.00,,2013-06-20 07:01:00,
2013-06-20 01:12:00,79.0,39.0,29.59,SSE,161,0.0,4.0,24,0.00,,,0.00,,2013-06-20 07:12:00,
2013-06-20 01:22:00,81.0,33.0,29.60,South,191,1.0,5.0,18,0.00,,,0.00,,2013-06-20 07:22:00,
2013-06-20 01:34:00,81.0,42.0,29.60,SSW,204,0.0,2.0,25,0.00,,,0.00,,2013-06-20 07:34:00,
2013-06-20 01:44:00,81.0,42.0,29.60,SSW,204,0.0,2.0,25,0.00,,,0.00,,2013-06-20 07:44:00,
2013-06-20 01:53:00,80.0,46.0,29.60,SSW,212,0.0,1.0,30,0.00,,,0.00,,2013-06-20 07:53:00,
2013-06-20 02:02:00,79.0,49.0,29.61,SE,146,0.0,2.0,35,0.00,,,0.00,,2013-06-20 08:02:00,
2013-06-20 02:11:00,79.0,49.0,29.61,SE,146,0.0,2.0,35,0.00,,,0.00,,2013-06-20 08:11:00,
2013-06-20 02:22:00,80.0,50.0,29.61,SE,132,0.0,3.0,35,0.00,,,0.00,,2013-06-20 08:22:00,
2013-06-20 02:34:00,78.0,50.0,29.61,SE,145,0.0,1.0,37,0.00,,,0.00,,2013-06-20 08:34:00,
2013-06-20 02:43:00,78.0,50.0,29.61,SE,145,0.0,1.0,37,0.00,,,0.00,,2013-06-20 08:43:00,
2013-06-20 02:53:00,77.0,49.0,29.61,SE,145,0.0,1.0,38,0.00,,,0.00,,2013-06-20 08:53:00,
2013-06-20 03:02:00,75.0,50.0,29.61,ESE,122,0.0,0.0,41,0.00,,,0.00,,2013-06-20 09:02:00,
2013-06-20 03:12:00,75.0,50.0,29.61,ESE,122,0.0,0.0,41,0.00,,,0.00,,2013-06-20 09:12:00,
2013-06-20 03:22:00,75.0,52.0,29.61,SE,134,0.0,0.0,44,0.00,,,0.00,,2013-06-20 09:22:00,
2013-06-20 03:33:00,75.0,50.0,29.61,SE,134,0.0,1.0,42,0.00,,,0.00,,2013-06-20 09:33:00,
2013-06-20 03:42:00,75.0,50.0,29.61,SE,134,0.0,1.0,42,0.00,,,0.00,,2013-06-20 09:42:00,
2013-06-20 03:52:00,75.0,50.0,29.61,SE,134,0.0,1.0,42,0.00,,,0.00,,2013-06-20 09:52:00,
2013-06-20 04:01:00,75.0,50.0,29.61,SE,134,0.0,1.0,42,0.00,,,0.00,,2013-06-20 10:01:00,
2013-06-20 04:11:00,75.0,50.0,29.61,SE,134,0.0,1.0,42,0.00,,,0.00,,2013-06-20 10:11:00,
2013-06-20 04:22:00,72.0,52.0,29.61,West,273,0.0,1.0,49,0.00,,,0.00,,2013-06-20 10:22:00,
2013-06-20 04:34:00,72.0,51.0,29.61,West,272,0.0,0.0,48,0.00,,,0.00,,2013-06-20 10:34:00,
2013-06-20 04:43:00,72.0,51.0,29.61,West,272,0.0,0.0,48,0.00,,,0.00,,2013-06-20 10:43:00,
2013-06-20 04:53:00,71.0,52.0,29.61,West,273,0.0,0.0,51,0.00,,,0.00,,2013-06-20 10:53:00,
2013-06-20 05:02:00,70.0,53.0,29.62,West,272,0.0,0.0,54,0.00,,,0.00,,2013-06-20 11:02:00,
2013-06-20 05:11:00,70.0,53.0,29.62,West,272,0.0,0.0,54,0.00,,,0.00,,2013-06-20 11:11:00,
2013-06-20 05:22:00,69.0,52.0,29.62,West,273,0.0,0.0,55,0.00,,,0.00,,2013-06-20 11:22:00,
2013-06-20 05:34:00,68.0,52.0,29.62,West,273,0.0,0.0,57,0.00,,,0.00,,2013-06-20 11:34:00,
2013-06-20 05:42:00,68.0,52.0,29.62,West,273,0.0,0.0,57,0.00,,,0.00,,2013-06-20 11:42:00,
2013-06-20 05:53:00,67.0,52.0,29.63,West,273,0.0,0.0,58,0.00,,,0.00,,2013-06-20 11:53:00,
2013-06-20 06:43:00,66.0,51.0,29.65,West,272,0.0,0.0,59,0.00,,,0.00,,2013-06-20 12:43:00,
2013-06-20 06:53:00,66.0,52.0,29.65,West,272,0.0,0.0,60,0.00,,,0.00,,2013-06-20 12:53:00,
2013-06-20 07:02:00,66.0,52.0,29.65,West,272,0.0,0.0,60,0.00,,,0.00,,2013-06-20 13:02:00,
2013-06-20 07:11:00,66.0,52.0,29.65,West,272,0.0,0.0,60,0.00,,,0.00,,2013-06-20 13:11:00,
2013-06-20 07:22:00,67.0,54.0,29.66,West,273,0.0,0.0,64,0.00,,,0.00,,2013-06-20 13:22:00,
2013-06-20 07:33:00,67.0,55.0,29.67,West,273,0.0,0.0,65,0.00,,,0.00,,2013-06-20 13:33:00,
2013-06-20 08:53:00,75.0,54.0,29.69,SE,136,0.0,1.0,48,0.00,,,0.00,,2013-06-20 14:53:00,
2013-06-20 09:02:00,80.0,58.0,29.69,East,101,0.0,2.0,47,0.00,,,0.00,,2013-06-20 15:02:00,
2013-06-20 09:11:00,80.0,58.0,29.69,East,101,0.0,2.0,47,0.00,,,0.00,,2013-06-20 15:11:00,
2013-06-20 09:22:00,82.0,55.0,29.68,SW,216,0.0,3.0,39,0.00,,,0.00,,2013-06-20 15:22:00,
2013-06-20 09:33:00,85.0,53.0,29.68,SSE,167,0.0,3.0,34,0.00,,,0.00,,2013-06-20 15:33:00,
2013-06-20 09:43:00,85.0,53.0,29.68,SSE,167,0.0,3.0,34,0.00,,,0.00,,2013-06-20 15:43:00,
2013-06-20 09:53:00,87.0,54.0,29.68,SE,142,0.0,4.0,33,0.00,,,0.00,,2013-06-20 15:53:00,
2013-06-20 10:01:00,88.0,50.0,29.68,SW,231,1.0,3.0,27,0.00,,,0.00,,2013-06-20 16:01:00,
2013-06-20 10:11:00,88.0,50.0,29.68,SW,231,1.0,3.0,27,0.00,,,0.00,,2013-06-20 16:11:00,
2013-06-20 10:22:00,89.0,53.0,29.67,SW,214,1.0,4.0,29,0.00,,,0.00,,2013-06-20 16:22:00,
2013-06-20 10:33:00,90.0,54.0,29.67,SE,133,0.0,3.0,30,0.00,,,0.00,,2013-06-20 16:33:00,
2013-06-20 10:52:00,92.0,52.0,29.67,WSW,250,0.0,4.0,26,0.00,,,0.00,,2013-06-20 16:52:00,
2013-06-20 11:01:00,92.0,45.0,29.67,WSW,250,1.0,4.0,20,0.00,,,0.00,,2013-06-20 17:01:00,
2013-06-20 11:11:00,92.0,45.0,29.67,WSW,250,1.0,4.0,20,0.00,,,0.00,,2013-06-20 17:11:00,
2013-06-20 11:22:00,93.0,47.0,29.67,ESE,118,0.0,6.0,21,0.00,,,0.00,,2013-06-20 17:22:00,
2013-06-20 11:32:00,95.0,45.0,29.66,ESE,118,0.0,5.0,18,0.00,,,0.00,,2013-06-20 17:32:00,
2013-06-20 11:43:00,95.0,45.0,29.66,ESE,118,0.0,5.0,18,0.00,,,0.00,,2013-06-20 17:43:00,
2013-06-20 11:53:00,96.0,41.0,29.66,SW,217,0.0,6.0,15,0.00,,,0.00,,2013-06-20 17:53:00,
2013-06-20 12:01:00,97.0,48.0,29.65,South,169,0.0,2.0,19,0.00,,,0.00,,2013-06-20 18:01:00,
2013-06-20 12:11:00,97.0,48.0,29.65,South,169,0.0,2.0,19,0.00,,,0.00,,2013-06-20 18:11:00,
2013-06-20 12:22:00,97.0,45.0,29.65,NW,307,0.0,2.0,17,0.00,,,0.00,,2013-06-20 18:22:00,
2013-06-20 12:33:00,97.0,40.0,29.64,East,91,1.0,5.0,14,0.00,,,0.00,,2013-06-20 18:33:00,
2013-06-20 12:43:00,97.0,40.0,29.64,East,91,1.0,5.0,14,0.00,,,0.00,,2013-06-20 18:43:00,
2013-06-20 12:53:00,98.0,42.0,29.64,WNW,290,1.0,4.0,15,0.00,,,0.00,,2013-06-20 18:53:00,
2013-06-20 13:01:00,99.0,37.0,29.63,SSW,204,1.0,4.0,12,0.00,,,0.00,,2013-06-20 19:01:00,
2013-06-20 13:11:00,99.0,37.0,29.63,SSW,204,1.0,4.0,12,0.00,,,0.00,,2013-06-20 19:11:00,
2013-06-20 13:22:00,100.0,40.0,29.62,WNW,295,1.0,6.0,13,0.00,,,0.00,,2013-06-20 19:22:00,
2013-06-20 13:34:00,101.0,39.0,29.61,SW,218,0.0,7.0,12,0.00,,,0.00,,2013-06-20 19:34:00,
2013-06-20 13:43:00,101.0,39.0,29.61,SW,218,0.0,7.0,12,0.00,,,0.00,,2013-06-20 19:43:00,
2013-06-20 13:52:00,102.0,44.0,29.60,SE,143,2.0,5.0,14,0.00,,,0.00,,2013-06-20 19:52:00,
2013-06-20 14:02:00,102.0,44.0,29.60,SE,143,2.0,5.0,14,0.00,,,0.00,,2013-06-20 20:02:00,
2013-06-20 14:11:00,103.0,45.0,29.60,WSW,255,2.0,6.0,14,0.00,,,0.00,,2013-06-20 20:11:00,
2013-06-20 14:22:00,101.0,41.0,29.59,WSW,252,1.0,7.0,13,0.00,,,0.00,,2013-06-20 20:22:00,
2013-06-20 14:33:00,101.0,41.0,29.59,WSW,252,1.0,7.0,13,0.00,,,0.00,,2013-06-20 20:33:00,
2013-06-20 14:42:00,101.0,39.0,29.58,SW,231,2.0,8.0,12,0.00,,,0.00,,2013-06-20 20:42:00,
2013-06-20 14:52:00,101.0,37.0,29.57,SSE,166,2.0,7.0,11,0.00,,,0.00,,2013-06-20 20:52:00,
2013-06-20 15:01:00,101.0,37.0,29.57,SSE,166,2.0,7.0,11,0.00,,,0.00,,2013-06-20 21:01:00,